Time;durP1;ratioP1;P1;durP2;ratioP2;P2;SDS_P1;SDS_P2;PMS_P1;PMS_P2;Temp;Humidity;BMP_temperature;BMP_pressure;BME280_temperature;BME280_humidity;BME280_pressure;Samples;Min_cycle;Max_cycle;Signal;HPM_P1;HPM_P2
2023/09/23 00:01:30;;;;;;;9.38;5.68;;;11.00;100.00;;;;;;4989483;28;20072;-72
2023/09/23 00:03:58;;;;;;;6.55;4.47;;;11.10;100.00;;;;;;5010688;28;20159;-72
2023/09/23 00:06:25;;;;;;;6.38;4.80;;;11.10;100.00;;;;;;4986473;28;20610;-72
2023/09/23 00:08:51;;;;;;;7.20;4.75;;;11.20;100.00;;;;;;4990924;28;20097;-72
2023/09/23 00:11:18;;;;;;;7.70;4.85;;;11.20;100.00;;;;;;5008050;28;20109;-73
2023/09/23 00:13:45;;;;;;;9.60;4.88;;;11.20;100.00;;;;;;4990362;28;20143;-72
2023/09/23 00:16:15;;;;;;;6.28;4.22;;;11.30;100.00;;;;;;4986547;28;20747;-72
2023/09/23 00:18:43;;;;;;;11.05;4.18;;;11.30;100.00;;;;;;4984097;28;20053;-72
2023/09/23 00:21:12;;;;;;;7.88;4.15;;;11.30;100.00;;;;;;5002473;28;20523;-72
2023/09/23 00:23:40;;;;;;;7.28;4.00;;;11.20;100.00;;;;;;4988449;28;20054;-72
2023/09/23 00:26:07;;;;;;;6.95;4.38;;;11.30;100.00;;;;;;5003968;28;20049;-72
2023/09/23 00:28:34;;;;;;;8.95;3.75;;;11.30;100.00;;;;;;5002504;28;20050;-72
2023/09/23 00:31:02;;;;;;;7.85;3.53;;;11.30;100.00;;;;;;4986156;28;20041;-72
2023/09/23 00:33:30;;;;;;;5.90;3.95;;;11.30;100.00;;;;;;5003342;28;20568;-72
2023/09/23 00:35:58;;;;;;;7.78;3.95;;;11.20;100.00;;;;;;4993151;28;20116;-72
2023/09/23 00:38:27;;;;;;;5.35;3.60;;;11.20;100.00;;;;;;5003735;28;20132;-72
2023/09/23 00:40:55;;;;;;;7.55;3.78;;;11.20;100.00;;;;;;4994858;28;20147;-72
2023/09/23 00:43:23;;;;;;;7.47;3.67;;;11.10;100.00;;;;;;4985206;28;20116;-72
2023/09/23 00:45:52;;;;;;;7.82;3.92;;;11.10;100.00;;;;;;4987471;28;20473;-72
2023/09/23 00:48:20;;;;;;;9.57;3.97;;;11.00;100.00;;;;;;5004040;28;20656;-72
2023/09/23 00:50:53;;;;;;;6.10;3.88;;;11.00;100.00;;;;;;4995056;28;20089;-72
2023/09/23 00:53:22;;;;;;;8.43;3.65;;;11.10;100.00;;;;;;4991297;28;20458;-72
2023/09/23 00:55:55;;;;;;;5.30;3.47;;;11.10;100.00;;;;;;4987415;28;20133;-72
2023/09/23 00:58:26;;;;;;;8.38;3.22;;;11.00;100.00;;;;;;4985699;28;20129;-72
2023/09/23 01:00:55;;;;;;;6.00;3.50;;;11.00;100.00;;;;;;5001694;28;20494;-72
2023/09/23 01:03:22;;;;;;;5.90;3.45;;;10.90;100.00;;;;;;4999647;28;20049;-72
2023/09/23 01:06:04;;;;;;;6.90;4.13;;;10.90;100.00;;;;;;4990629;28;20049;-72
2023/09/23 01:08:31;;;;;;;5.88;3.30;;;10.90;100.00;;;;;;5010307;28;20077;-72
2023/09/23 01:10:59;;;;;;;8.23;3.60;;;10.90;100.00;;;;;;5003864;28;20723;-73
2023/09/23 01:13:29;;;;;;;5.13;3.50;;;10.80;100.00;;;;;;4989626;28;20081;-72
2023/09/23 01:15:57;;;;;;;9.82;3.42;;;10.70;100.00;;;;;;4993292;28;20046;-72
2023/09/23 01:18:24;;;;;;;7.85;3.63;;;10.70;100.00;;;;;;5003329;28;20061;-72
2023/09/23 01:20:55;;;;;;;9.05;3.53;;;10.70;100.00;;;;;;5004062;28;20058;-72
2023/09/23 01:23:23;;;;;;;5.45;3.33;;;10.60;100.00;;;;;;5000823;23;20443;-72
2023/09/23 01:25:50;;;;;;;4.00;2.92;;;10.60;100.00;;;;;;4983642;28;20074;-72
2023/09/23 01:28:18;;;;;;;8.48;3.70;;;10.60;100.00;;;;;;5001318;28;20146;-72
2023/09/23 01:30:45;;;;;;;7.65;3.40;;;10.50;100.00;;;;;;5000017;28;20042;-72
2023/09/23 01:33:16;;;;;;;5.03;3.75;;;10.50;100.00;;;;;;5002262;28;20431;-72
2023/09/23 01:35:43;;;;;;;10.05;3.88;;;10.40;100.00;;;;;;4999388;28;20514;-72
2023/09/23 01:38:11;;;;;;;6.20;4.00;;;10.40;100.00;;;;;;4984329;28;20132;-72
2023/09/23 01:40:43;;;;;;;7.25;4.07;;;10.40;100.00;;;;;;5002289;28;20513;-72
2023/09/23 01:43:10;;;;;;;7.97;3.20;;;10.40;100.00;;;;;;5004610;28;20042;-72
2023/09/23 01:45:38;;;;;;;5.45;3.60;;;10.30;100.00;;;;;;4986380;28;20050;-72
2023/09/23 01:48:07;;;;;;;10.15;4.05;;;10.30;100.00;;;;;;4999292;28;20072;-72
2023/09/23 01:50:34;;;;;;;6.53;3.65;;;10.30;100.00;;;;;;5002956;28;20111;-72
2023/09/23 01:53:01;;;;;;;8.30;3.78;;;10.30;100.00;;;;;;4985934;28;20060;-72
2023/09/23 01:55:28;;;;;;;9.75;4.35;;;10.20;100.00;;;;;;5008490;28;20127;-72
2023/09/23 02:01:30;;;;;;;8.00;3.75;;;10.20;100.00;;;;;;5002491;28;20742;-72
2023/09/23 02:03:57;;;;;;;5.70;3.80;;;10.20;100.00;;;;;;5001332;28;20926;-72
2023/09/23 02:06:28;;;;;;;7.00;3.80;;;10.20;100.00;;;;;;4989646;28;20142;-72
2023/09/23 02:08:57;;;;;;;10.90;3.38;;;10.10;100.00;;;;;;4991315;28;20465;-72
2023/09/23 02:11:24;;;;;;;5.82;3.75;;;10.00;100.00;;;;;;5008417;28;20545;-71
2023/09/23 02:13:51;;;;;;;7.45;3.20;;;10.00;100.00;;;;;;4994026;28;20584;-72
2023/09/23 02:16:18;;;;;;;6.55;3.42;;;10.00;100.00;;;;;;4996915;28;20667;-71
2023/09/23 02:18:51;;;;;;;8.35;3.15;;;10.00;100.00;;;;;;5002496;28;20403;-72
2023/09/23 02:21:20;;;;;;;12.48;4.20;;;9.90;100.00;;;;;;5004067;28;20066;-72
2023/09/23 02:23:47;;;;;;;6.95;3.63;;;9.90;100.00;;;;;;4987962;28;20147;-72
2023/09/23 02:26:14;;;;;;;6.90;4.00;;;9.90;100.00;;;;;;5003893;28;20125;-72
2023/09/23 02:28:41;;;;;;;5.70;3.85;;;10.00;100.00;;;;;;5003590;28;20050;-72
2023/09/23 02:31:08;;;;;;;12.27;4.03;;;10.00;100.00;;;;;;4989211;28;20057;-72
2023/09/23 02:33:35;;;;;;;7.70;4.72;;;9.90;100.00;;;;;;5005897;28;20054;-72
2023/09/23 02:36:02;;;;;;;12.80;5.38;;;10.00;100.00;;;;;;5003539;28;20450;-72
2023/09/23 02:38:44;;;;;;;12.80;6.05;;;10.00;100.00;;;;;;5006767;28;20049;-72
2023/09/23 02:41:11;;;;;;;9.50;4.85;;;10.00;100.00;;;;;;4989862;28;20052;-72
2023/09/23 02:43:38;;;;;;;6.78;4.00;;;10.10;100.00;;;;;;4986592;28;20137;-72
2023/09/23 02:46:06;;;;;;;6.63;3.65;;;10.10;100.00;;;;;;5005197;28;20045;-72
2023/09/23 02:48:33;;;;;;;8.93;4.50;;;10.10;100.00;;;;;;5007337;28;20041;-72
2023/09/23 02:51:03;;;;;;;8.90;3.80;;;10.20;100.00;;;;;;4986082;28;20505;-72
2023/09/23 02:53:30;;;;;;;6.15;3.60;;;10.20;100.00;;;;;;5002786;28;20060;-72
2023/09/23 02:56:08;;;;;;;8.90;5.22;;;10.20;100.00;;;;;;4994803;28;22179;-72
2023/09/23 02:58:35;;;;;;;11.93;4.50;;;10.30;100.00;;;;;;4982448;28;20536;-72
2023/09/23 03:01:04;;;;;;;7.68;4.90;;;10.30;100.00;;;;;;4998797;28;20049;-72
2023/09/23 03:03:40;;;;;;;7.65;4.25;;;10.40;100.00;;;;;;5001461;28;20053;-72
2023/09/23 03:06:07;;;;;;;;;;;10.40;100.00;;;;;;4986266;28;20050;-72
2023/09/23 03:08:37;;;;;;;6.82;4.40;;;10.50;100.00;;;;;;5002413;28;19984;-72
2023/09/23 03:11:09;;;;;;;9.23;4.47;;;10.50;100.00;;;;;;4984062;28;20053;-72
2023/09/23 03:13:36;;;;;;;7.35;4.82;;;10.50;100.00;;;;;;4993096;28;20060;-72
2023/09/23 03:16:11;;;;;;;13.10;4.68;;;10.60;100.00;;;;;;5001782;28;20609;-72
2023/09/23 03:19:10;;;;;;;11.57;4.85;;;10.60;100.00;;;;;;4983803;28;20558;-72
2023/09/23 03:21:45;;;;;;;14.77;6.65;;;10.70;100.00;;;;;;5000576;28;20060;-72
2023/09/23 03:24:13;;;;;;;25.23;9.27;;;10.80;100.00;;;;;;5003399;28;20139;-72
2023/09/23 03:26:40;;;;;;;20.90;9.65;;;10.90;100.00;;;;;;4986762;28;20042;-72
2023/09/23 03:29:08;;;;;;;24.98;8.25;;;11.00;100.00;;;;;;5002055;28;20131;-72
2023/09/23 03:31:35;;;;;;;17.60;6.88;;;11.10;100.00;;;;;;5003394;28;20046;-72
2023/09/23 03:34:03;;;;;;;19.30;6.38;;;11.20;100.00;;;;;;5002093;28;20053;-71
2023/09/23 03:36:31;;;;;;;12.98;6.53;;;11.40;100.00;;;;;;5001767;28;20056;-72
2023/09/23 03:39:00;;;;;;;15.13;5.88;;;11.50;100.00;;;;;;4989969;28;20536;-72
2023/09/23 03:41:28;;;;;;;12.45;6.35;;;11.60;100.00;;;;;;5000851;28;20111;-72
2023/09/23 03:43:55;;;;;;;11.88;6.18;;;11.60;100.00;;;;;;4988624;28;20052;-72
2023/09/23 03:46:22;;;;;;;17.13;5.65;;;11.70;100.00;;;;;;5005025;28;20050;-72
2023/09/23 03:48:49;;;;;;;9.73;5.78;;;11.80;100.00;;;;;;5001773;28;20084;-71
2023/09/23 03:51:16;;;;;;;10.90;5.75;;;11.90;100.00;;;;;;4987555;28;20039;-72
2023/09/23 03:53:44;;;;;;;11.00;5.88;;;11.90;100.00;;;;;;5001394;28;20045;-72
2023/09/23 03:56:11;;;;;;;9.40;6.03;;;11.90;100.00;;;;;;4980706;28;20135;-72
2023/09/23 03:58:40;;;;;;;12.27;5.78;;;12.00;100.00;;;;;;4991551;28;20136;-72
2023/09/23 04:01:13;;;;;;;12.20;6.28;;;12.00;100.00;;;;;;5002282;28;20167;-72
2023/09/23 04:03:41;;;;;;;9.95;5.75;;;12.00;100.00;;;;;;4998848;28;20136;-72
2023/09/23 04:06:08;;;;;;;9.70;5.93;;;12.00;100.00;;;;;;4988202;28;20045;-72
2023/09/23 04:08:35;;;;;;;13.80;7.10;;;12.10;100.00;;;;;;4998106;28;20050;-72
2023/09/23 04:11:07;;;;;;;12.88;6.78;;;12.10;100.00;;;;;;4997847;28;20959;-72
2023/09/23 04:13:34;;;;;;;10.98;5.78;;;12.10;100.00;;;;;;4993697;28;20065;-72
2023/09/23 04:16:01;;;;;;;11.95;5.97;;;12.10;100.00;;;;;;4998796;28;20057;-72
2023/09/23 04:18:29;;;;;;;11.60;5.60;;;12.10;100.00;;;;;;4990957;28;20100;-72
2023/09/23 04:20:56;;;;;;;9.18;5.65;;;12.10;100.00;;;;;;4992108;28;20127;-72
2023/09/23 04:23:23;;;;;;;10.90;6.10;;;12.00;100.00;;;;;;5003895;28;20478;-72
2023/09/23 04:25:50;;;;;;;9.75;5.28;;;12.00;100.00;;;;;;4989728;28;20125;-72
2023/09/23 04:28:18;;;;;;;13.40;5.57;;;12.00;100.00;;;;;;4980434;28;20081;-72
2023/09/23 04:30:45;;;;;;;9.27;6.13;;;12.00;100.00;;;;;;4990128;28;20659;-72
2023/09/23 04:33:12;;;;;;;7.90;4.90;;;12.00;100.00;;;;;;4994861;28;20041;-72
2023/09/23 04:35:40;;;;;;;9.38;4.88;;;11.90;100.00;;;;;;5001668;28;20134;-72
2023/09/23 04:38:07;;;;;;;11.50;5.30;;;11.90;100.00;;;;;;4994194;28;20108;-72
2023/09/23 04:40:34;;;;;;;11.18;4.75;;;11.90;100.00;;;;;;4987657;28;20057;-72
2023/09/23 04:43:04;;;;;;;8.52;5.10;;;11.90;100.00;;;;;;5001970;28;20798;-72
2023/09/23 04:45:31;;;;;;;10.43;4.78;;;11.80;100.00;;;;;;5000557;28;20053;-70
2023/09/23 04:48:00;;;;;;;19.65;5.85;;;11.80;100.00;;;;;;4988202;28;20056;-73
2023/09/23 04:50:28;;;;;;;10.20;4.90;;;11.80;100.00;;;;;;5004875;28;20061;-72
2023/09/23 04:52:54;;;;;;;10.07;4.75;;;11.70;100.00;;;;;;5002428;28;20267;-72
2023/09/23 04:55:22;;;;;;;12.93;5.00;;;11.70;100.00;;;;;;5000415;28;20702;-72
2023/09/23 04:57:49;;;;;;;11.40;5.75;;;11.70;100.00;;;;;;4986545;28;20057;-72
2023/09/23 05:00:19;;;;;;;8.60;5.07;;;11.80;100.00;;;;;;4985739;28;20061;-72
2023/09/23 05:02:49;;;;;;;13.15;5.90;;;11.80;100.00;;;;;;4988094;28;20618;-72
2023/09/23 05:05:17;;;;;;;7.50;4.50;;;11.80;100.00;;;;;;4984526;28;20129;-72
2023/09/23 05:07:45;;;;;;;9.93;5.13;;;11.80;100.00;;;;;;5002248;28;20054;-72
2023/09/23 05:10:12;;;;;;;12.23;5.40;;;11.80;100.00;;;;;;5004496;28;20157;-72
2023/09/23 05:12:40;;;;;;;10.05;5.00;;;11.90;100.00;;;;;;4989467;28;20557;-72
2023/09/23 05:15:14;;;;;;;9.52;5.45;;;11.90;100.00;;;;;;5002691;28;20052;-71
2023/09/23 05:17:43;;;;;;;8.07;4.60;;;11.90;100.00;;;;;;5003187;28;20053;-73
2023/09/23 05:20:25;;;;;;;9.75;5.22;;;12.00;100.00;;;;;;4999945;28;20049;-72
2023/09/23 05:22:52;;;;;;;7.32;4.53;;;12.00;100.00;;;;;;4994834;28;20130;-72
2023/09/23 05:25:20;;;;;;;8.43;4.57;;;12.10;100.00;;;;;;5000076;28;20060;-72
2023/09/23 05:27:46;;;;;;;10.05;5.00;;;12.10;100.00;;;;;;4984990;28;20569;-72
2023/09/23 05:30:14;;;;;;;7.75;4.80;;;12.20;100.00;;;;;;5001897;28;20942;-73
2023/09/23 05:32:42;;;;;;;11.60;5.05;;;12.20;100.00;;;;;;4986472;28;20142;-71
2023/09/23 05:35:09;;;;;;;13.27;4.88;;;12.20;100.00;;;;;;5005235;28;20509;-72
2023/09/23 05:37:40;;;;;;;12.35;4.97;;;12.20;100.00;;;;;;4984562;28;20585;-72
2023/09/23 05:40:23;;;;;;;10.15;4.55;;;12.20;100.00;;;;;;5004742;28;20052;-72
2023/09/23 05:42:52;;;;;;;9.23;4.55;;;12.20;100.00;;;;;;5002342;28;20069;-72
2023/09/23 05:45:22;;;;;;;8.82;4.93;;;12.20;100.00;;;;;;4987734;28;20046;-72
2023/09/23 05:47:50;;;;;;;5.68;3.78;;;12.20;100.00;;;;;;4982597;28;20054;-72
2023/09/23 05:50:20;;;;;;;12.43;4.32;;;12.20;100.00;;;;;;4988238;28;20054;-71
2023/09/23 05:52:47;;;;;;;10.40;4.20;;;12.20;100.00;;;;;;4998467;28;20046;-72
2023/09/23 05:55:15;;;;;;;8.90;4.03;;;12.20;100.00;;;;;;4998832;28;20079;-72
2023/09/23 05:57:42;;;;;;;9.45;3.65;;;12.20;100.00;;;;;;5003535;28;20046;-72
2023/09/23 06:00:11;;;;;;;9.23;3.63;;;12.20;100.00;;;;;;4989161;28;20045;-72
2023/09/23 06:02:39;;;;;;;7.00;3.78;;;12.20;100.00;;;;;;4987348;28;20052;-72
2023/09/23 06:05:06;;;;;;;7.55;3.83;;;12.20;100.00;;;;;;5001469;28;20486;-72
2023/09/23 06:07:33;;;;;;;7.05;4.05;;;12.20;100.00;;;;;;5001912;28;20038;-72
2023/09/23 06:10:00;;;;;;;7.38;4.43;;;12.20;100.00;;;;;;5004714;28;20050;-72
2023/09/23 06:12:31;;;;;;;13.48;4.75;;;12.20;100.00;;;;;;5007076;28;20038;-72
2023/09/23 06:14:59;;;;;;;12.43;4.57;;;12.30;100.00;;;;;;5003167;28;20470;-73
2023/09/23 06:17:27;;;;;;;9.68;4.90;;;12.40;100.00;;;;;;5002975;28;20061;-73
2023/09/23 06:19:58;;;;;;;9.50;4.47;;;12.50;100.00;;;;;;5000437;28;20108;-73
2023/09/23 06:22:27;;;;;;;11.40;4.93;;;12.60;100.00;;;;;;5002465;28;20498;-73
2023/09/23 06:24:54;;;;;;;12.68;5.32;;;12.80;100.00;;;;;;4989677;28;20046;-73
2023/09/23 06:27:21;;;;;;;13.40;6.03;;;12.90;100.00;;;;;;5000952;28;20509;-74
2023/09/23 06:29:48;;;;;;;13.90;6.38;;;13.00;100.00;;;;;;5003463;28;20054;-76
2023/09/23 06:32:15;;;;;;;16.05;6.95;;;13.10;100.00;;;;;;5004571;28;20046;-73
2023/09/23 06:34:42;;;;;;;14.98;6.68;;;13.10;100.00;;;;;;4987497;28;20049;-74
2023/09/23 06:37:09;;;;;;;15.13;8.00;;;13.20;100.00;;;;;;4995162;28;20157;-75
2023/09/23 06:39:36;;;;;;;13.63;6.78;;;13.30;99.30;;;;;;4999691;28;20053;-74
2023/09/23 06:42:03;;;;;;;14.57;6.63;;;13.40;99.80;;;;;;4989416;28;20061;-75
2023/09/23 06:44:31;;;;;;;16.23;6.97;;;13.50;98.70;;;;;;5005458;28;20100;-75
2023/09/23 06:47:00;;;;;;;15.95;7.25;;;13.50;98.20;;;;;;5004861;28;20076;-75
2023/09/23 06:49:29;;;;;;;17.95;8.63;;;13.60;98.30;;;;;;5002683;28;20151;-73
2023/09/23 06:51:56;;;;;;;16.02;9.02;;;13.60;97.90;;;;;;5004312;28;20104;-74
2023/09/23 06:54:23;;;;;;;18.55;9.13;;;13.70;97.20;;;;;;5002802;28;20054;-78
2023/09/23 06:56:52;;;;;;;19.83;10.90;;;13.70;97.10;;;;;;4986716;28;20058;-75
2023/09/23 06:59:19;;;;;;;19.92;10.40;;;13.80;97.40;;;;;;4995511;28;20669;-75
2023/09/23 07:01:46;;;;;;;17.48;9.45;;;13.80;97.20;;;;;;4982097;28;20054;-75
2023/09/23 07:04:13;;;;;;;21.75;10.52;;;13.80;96.40;;;;;;4993090;28;20070;-75
2023/09/23 07:06:40;;;;;;;18.08;9.48;;;13.90;96.40;;;;;;4985434;28;20146;-75
2023/09/23 07:09:07;;;;;;;21.20;10.05;;;13.90;96.10;;;;;;4994182;28;20495;-76
2023/09/23 07:11:34;;;;;;;19.42;9.10;;;13.90;95.60;;;;;;5001458;28;20128;-74
2023/09/23 07:14:05;;;;;;;17.73;9.73;;;13.90;96.10;;;;;;4984658;28;20199;-72
2023/09/23 07:16:33;;;;;;;18.05;9.65;;;14.00;96.20;;;;;;4997779;28;20079;-72
2023/09/23 07:19:01;;;;;;;17.40;9.25;;;14.10;95.50;;;;;;4986235;28;20149;-73
2023/09/23 07:21:28;;;;;;;20.40;10.60;;;14.20;96.20;;;;;;4996062;28;20474;-73
2023/09/23 07:23:57;;;;;;;20.63;10.13;;;14.20;95.10;;;;;;5003820;28;20120;-74
2023/09/23 07:26:23;;;;;;;14.98;8.25;;;14.30;94.10;;;;;;5002793;28;20131;-71
2023/09/23 07:28:50;;;;;;;15.85;8.70;;;14.30;93.60;;;;;;4986160;28;20053;-70
2023/09/23 07:31:18;;;;;;;19.30;8.57;;;14.40;94.50;;;;;;4997875;28;20310;-72
2023/09/23 07:33:45;;;;;;;20.42;8.52;;;14.50;93.90;;;;;;5002971;28;20141;-72
2023/09/23 07:36:13;;;;;;;13.73;8.07;;;14.50;92.90;;;;;;5005800;28;20057;-73
2023/09/23 07:38:40;;;;;;;14.93;8.60;;;14.40;93.50;;;;;;5005702;28;20438;-73
2023/09/23 07:41:07;;;;;;;16.15;8.43;;;14.40;93.40;;;;;;4982062;28;20076;-74
2023/09/23 07:43:35;;;;;;;53.13;13.82;;;14.40;92.90;;;;;;5000692;28;20483;-73
2023/09/23 07:46:02;;;;;;;15.70;8.73;;;14.40;93.90;;;;;;5002858;28;20147;-73
2023/09/23 07:48:29;;;;;;;16.52;8.75;;;14.50;93.10;;;;;;5001243;28;20042;-72
2023/09/23 07:50:56;;;;;;;15.38;8.73;;;14.50;92.50;;;;;;4997231;28;20060;-73
2023/09/23 07:53:22;;;;;;;14.30;8.00;;;14.60;93.20;;;;;;4983338;28;20054;-73
2023/09/23 07:55:49;;;;;;;12.77;7.38;;;14.70;92.70;;;;;;5000278;28;20111;-74
2023/09/23 07:58:16;;;;;;;17.23;8.02;;;14.70;92.10;;;;;;4980053;28;20042;-74
2023/09/23 08:00:43;;;;;;;14.77;7.70;;;14.80;91.00;;;;;;4995308;28;20065;-74
2023/09/23 08:03:10;;;;;;;13.50;7.88;;;14.80;91.40;;;;;;4978674;28;20627;-75
2023/09/23 08:05:37;;;;;;;13.75;8.25;;;14.80;92.40;;;;;;4993372;28;20056;-74
2023/09/23 08:08:06;;;;;;;15.70;7.68;;;14.80;91.60;;;;;;4994310;28;20570;-74
2023/09/23 08:10:33;;;;;;;17.27;7.65;;;14.80;91.40;;;;;;4981508;28;20041;-74
2023/09/23 08:12:59;;;;;;;15.27;8.70;;;14.90;90.60;;;;;;4979878;28;20117;-74
2023/09/23 08:18:53;;;;;;;14.30;8.18;;;15.10;91.40;;;;;;5085862;27;20523;-77
2023/09/23 08:21:23;;;;;;;15.63;8.00;;;15.20;90.70;;;;;;5076453;28;20869;-80
2023/09/23 08:23:52;;;;;;;15.40;9.02;;;15.50;91.40;;;;;;5077353;28;20052;-78
2023/09/23 08:26:19;;;;;;;18.17;10.23;;;15.70;90.60;;;;;;5073298;28;20048;-77
2023/09/23 08:28:46;;;;;;;16.10;9.48;;;15.90;88.30;;;;;;5073851;28;20044;-78
2023/09/23 08:31:14;;;;;;;21.60;8.82;;;16.10;87.70;;;;;;5068704;28;20135;-77
2023/09/23 08:33:43;;;;;;;18.48;9.38;;;16.40;86.40;;;;;;5070625;28;20052;-78
2023/09/23 08:36:11;;;;;;;20.17;9.10;;;16.60;86.90;;;;;;5074895;28;20067;-78
2023/09/23 08:38:42;;;;;;;17.55;9.48;;;16.60;83.90;;;;;;5075896;28;20044;-76
2023/09/23 08:41:16;;;;;;;14.88;9.13;;;16.60;84.70;;;;;;5078163;28;20135;-77
2023/09/23 08:43:50;;;;;;;16.33;8.95;;;16.60;83.10;;;;;;5075997;28;20040;-78
2023/09/23 08:46:21;;;;;;;14.98;9.20;;;16.60;82.30;;;;;;5074834;28;20472;-77
2023/09/23 08:48:49;;;;;;;18.52;8.55;;;16.40;83.20;;;;;;5072196;28;20399;-77
2023/09/23 08:51:19;;;;;;;15.38;8.57;;;16.30;84.10;;;;;;5073848;28;20052;-78
2023/09/23 08:53:48;;;;;;;15.82;8.60;;;16.20;84.40;;;;;;5072765;28;20831;-76
2023/09/23 08:56:15;;;;;;;16.08;8.50;;;16.10;84.70;;;;;;5074764;28;20051;-77
2023/09/23 08:58:44;;;;;;;13.50;8.68;;;16.10;84.70;;;;;;5074736;28;20044;-78
2023/09/23 09:01:11;;;;;;;16.83;8.60;;;16.10;84.50;;;;;;5074732;28;20075;-78
2023/09/23 09:03:38;;;;;;;15.57;8.50;;;16.00;84.90;;;;;;5075672;28;20055;-77
2023/09/23 09:06:29;;;;;;;18.80;9.32;;;16.10;84.30;;;;;;5074856;28;20967;-77
2023/09/23 09:08:56;;;;;;;17.38;8.70;;;16.20;84.40;;;;;;5090168;28;20056;-77
2023/09/23 09:11:23;;;;;;;16.60;8.50;;;16.20;84.10;;;;;;5073159;28;20052;-79
2023/09/23 09:13:51;;;;;;;14.60;8.68;;;16.30;85.70;;;;;;5173345;22;20052;-82
2023/09/23 09:16:20;;;;;;;17.90;8.45;;;16.70;85.00;;;;;;5052222;28;20088;-77
2023/09/23 09:18:51;;;;;;;12.73;7.75;;;16.70;81.60;;;;;;5054786;28;20144;-80
2023/09/23 09:21:19;;;;;;;12.27;7.22;;;16.70;83.30;;;;;;5055842;28;20370;-79
2023/09/23 09:23:46;;;;;;;14.00;7.30;;;16.80;83.20;;;;;;5051758;28;20049;-78
2023/09/23 09:26:16;;;;;;;12.85;7.43;;;16.90;83.40;;;;;;5050467;28;20857;-80
2023/09/23 09:28:44;;;;;;;12.93;6.97;;;16.80;82.10;;;;;;5044665;28;20045;-79
2023/09/23 09:31:13;;;;;;;10.10;6.75;;;16.80;82.60;;;;;;5036213;28;20072;-79
2023/09/23 09:33:43;;;;;;;14.77;6.82;;;16.60;81.10;;;;;;5040791;28;20055;-79
2023/09/23 09:36:34;;;;;;;16.90;6.32;;;16.70;84.90;;;;;;5042346;28;20057;-79
2023/09/23 09:39:08;;;;;;;13.20;5.70;;;17.20;82.60;;;;;;5039424;28;20045;-79
2023/09/23 09:41:53;;;;;;;12.65;5.45;;;17.30;80.80;;;;;;5040709;28;20045;-79
2023/09/23 09:44:23;;;;;;;10.02;5.07;;;17.30;78.70;;;;;;5038038;28;20057;-79
2023/09/23 09:46:53;;;;;;;10.68;4.45;;;17.20;77.60;;;;;;5043079;28;20075;-79
2023/09/23 09:49:21;;;;;;;7.15;4.25;;;17.10;79.00;;;;;;5042986;28;20056;-79
2023/09/23 09:51:49;;;;;;;8.95;4.50;;;17.00;80.50;;;;;;5045457;28;20125;-79
2023/09/23 09:54:26;;;;;;;8.70;4.65;;;17.00;81.20;;;;;;5045280;28;20171;-79
2023/09/23 09:56:56;;;;;;;9.70;4.70;;;17.70;79.70;;;;;;5041018;28;20396;-78
2023/09/23 09:59:27;;;;;;;7.10;4.32;;;17.70;80.80;;;;;;5042972;28;20392;-78
2023/09/23 10:01:58;;;;;;;7.85;5.18;;;18.10;77.00;;;;;;5048809;28;20072;-79
2023/09/23 10:04:33;;;;;;;7.10;4.03;;;18.10;76.50;;;;;;5051640;28;20063;-79
2023/09/23 10:07:05;;;;;;;6.03;4.32;;;18.10;76.00;;;;;;5048168;28;20063;-78
2023/09/23 10:09:32;;;;;;;6.38;4.07;;;17.80;73.20;;;;;;5036218;28;20087;-79
2023/09/23 10:12:01;;;;;;;6.45;3.88;;;17.80;76.90;;;;;;5038232;28;20044;-78
2023/09/23 10:14:28;;;;;;;10.38;4.28;;;18.10;74.30;;;;;;5038923;28;20045;-78
2023/09/23 10:16:59;;;;;;;8.32;4.30;;;18.10;74.70;;;;;;5048087;28;20156;-78
2023/09/23 10:19:31;;;;;;;9.23;4.78;;;18.00;77.90;;;;;;5043682;28;20105;-78
2023/09/23 10:22:17;;;;;;;11.85;3.53;;;18.50;76.50;;;;;;5044203;28;20053;-79
2023/09/23 10:24:44;;;;;;;6.78;3.83;;;18.90;74.80;;;;;;5039134;28;20455;-78
2023/09/23 10:27:11;;;;;;;9.63;3.83;;;19.40;72.80;;;;;;5037027;28;20045;-79
2023/09/23 10:29:47;;;;;;;7.25;3.92;;;20.00;70.90;;;;;;5043109;28;20560;-79
2023/09/23 10:32:16;;;;;;;13.13;4.18;;;20.00;68.80;;;;;;5036017;28;20055;-79
2023/09/23 10:34:55;;;;;;;8.18;4.30;;;19.70;68.90;;;;;;5044192;28;20441;-79
2023/09/23 10:37:29;;;;;;;6.22;4.00;;;19.40;68.90;;;;;;5049840;28;20056;-79
2023/09/23 10:40:13;;;;;;;7.93;4.80;;;19.00;69.80;;;;;;5041568;28;20057;-79
2023/09/23 10:42:41;;;;;;;7.22;4.75;;;18.60;71.20;;;;;;5046082;28;20052;-78
2023/09/23 10:45:09;;;;;;;10.82;4.30;;;18.20;73.00;;;;;;5051303;28;20138;-79
2023/09/23 10:47:37;;;;;;;6.43;4.00;;;17.90;74.80;;;;;;5047321;28;20079;-74
2023/09/23 10:50:06;;;;;;;10.00;4.32;;;17.50;75.80;;;;;;5053348;28;20041;-74
2023/09/23 10:52:34;;;;;;;7.18;3.45;;;17.60;77.10;;;;;;5040290;28;20055;-74
2023/09/23 10:55:02;;;;;;;8.52;3.00;;;17.50;77.40;;;;;;5049414;28;20131;-74
2023/09/23 10:57:29;;;;;;;3.40;2.50;;;17.50;76.90;;;;;;5043670;28;20606;-74
2023/09/23 10:59:58;;;;;;;4.78;2.65;;;17.70;75.80;;;;;;5043047;28;20045;-74
2023/09/23 11:02:25;;;;;;;3.05;1.60;;;17.80;75.30;;;;;;5043231;28;20045;-74
2023/09/23 11:04:55;;;;;;;1.98;1.58;;;17.90;76.10;;;;;;5047298;28;20049;-74
2023/09/23 11:07:24;;;;;;;3.70;1.40;;;17.90;74.60;;;;;;5047857;28;20053;-74
2023/09/23 11:09:53;;;;;;;2.58;1.63;;;18.10;74.90;;;;;;5043406;28;20381;-74
2023/09/23 11:12:20;;;;;;;2.22;1.25;;;18.30;74.40;;;;;;5047193;28;20041;-74
2023/09/23 11:14:48;;;;;;;2.15;1.70;;;19.00;74.30;;;;;;5036093;28;20157;-74
2023/09/23 11:17:25;;;;;;;4.45;1.70;;;19.20;72.80;;;;;;5046799;28;20045;-74
2023/09/23 11:19:57;;;;;;;3.25;1.90;;;20.00;73.70;;;;;;5043338;28;20057;-74
2023/09/23 11:22:29;;;;;;;2.97;1.60;;;21.30;69.00;;;;;;5040026;28;20037;-74
2023/09/23 11:24:57;;;;;;;4.53;1.33;;;22.30;66.30;;;;;;5038156;28;20133;-74
2023/09/23 11:27:26;;;;;;;1.88;1.55;;;23.10;65.40;;;;;;5042578;28;20099;-74
2023/09/23 11:29:55;;;;;;;2.83;1.90;;;24.10;62.80;;;;;;5028752;28;20444;-74
2023/09/23 11:32:26;;;;;;;5.47;1.92;;;25.20;60.00;;;;;;5044666;28;20041;-72
2023/09/23 11:34:54;;;;;;;3.55;1.60;;;24.60;53.20;;;;;;5032891;28;20449;-72
2023/09/23 11:37:22;;;;;;;3.22;1.85;;;23.00;57.10;;;;;;5041339;28;20080;-72
2023/09/23 11:39:50;;;;;;;2.47;1.30;;;21.80;58.40;;;;;;5043564;28;20114;-72
2023/09/23 11:42:17;;;;;;;4.32;1.63;;;21.00;61.20;;;;;;5043410;28;20511;-72
2023/09/23 11:44:44;;;;;;;3.80;1.77;;;20.50;63.30;;;;;;5044994;28;20057;-72
2023/09/23 11:47:11;;;;;;;3.95;1.63;;;20.00;64.10;;;;;;5042751;28;20060;-72
2023/09/23 11:49:38;;;;;;;5.57;1.88;;;19.20;64.70;;;;;;5037147;28;20045;-70
2023/09/23 11:52:12;;;;;;;5.78;1.98;;;18.80;67.50;;;;;;5034541;28;20048;-72
2023/09/23 11:54:44;;;;;;;2.83;1.63;;;18.40;67.90;;;;;;5043305;28;20485;-72
2023/09/23 11:57:11;;;;;;;5.15;1.40;;;18.10;70.00;;;;;;5038421;28;20103;-74
2023/09/23 11:59:38;;;;;;;2.60;1.48;;;17.80;71.10;;;;;;5056361;28;20131;-74
2023/09/23 12:02:05;;;;;;;1.95;1.52;;;17.70;73.10;;;;;;5029584;28;20073;-74
2023/09/23 12:04:32;;;;;;;4.22;1.52;;;17.80;74.60;;;;;;5033749;28;20045;-74
2023/09/23 12:07:00;;;;;;;1.67;1.45;;;17.90;73.40;;;;;;5037885;28;20056;-74
2023/09/23 12:09:28;;;;;;;1.63;1.42;;;17.90;75.10;;;;;;5039280;28;20116;-74
2023/09/23 12:11:55;;;;;;;4.30;1.27;;;18.00;74.10;;;;;;5036354;28;20052;-74
2023/09/23 12:14:22;;;;;;;4.47;1.50;;;17.90;71.90;;;;;;5036473;28;20053;-74
2023/09/23 12:16:50;;;;;;;8.65;1.83;;;18.00;72.40;;;;;;5036760;28;20084;-74
2023/09/23 12:19:17;;;;;;;2.63;1.67;;;18.50;72.50;;;;;;5034659;28;20049;-73
2023/09/23 12:21:44;;;;;;;3.17;1.58;;;18.80;70.90;;;;;;5030100;28;20053;-74
2023/09/23 12:24:11;;;;;;;4.18;1.63;;;18.90;69.00;;;;;;5035633;28;20661;-74
2023/09/23 12:26:38;;;;;;;2.38;1.33;;;19.10;69.40;;;;;;5038862;28;20045;-74
2023/09/23 12:29:05;;;;;;;2.85;1.30;;;19.20;67.10;;;;;;5039994;28;20062;-74
2023/09/23 12:31:32;;;;;;;3.63;1.40;;;19.10;69.40;;;;;;5035562;28;20049;-74
2023/09/23 12:33:59;;;;;;;4.50;1.25;;;19.10;67.30;;;;;;5056941;28;20551;-74
2023/09/23 12:36:26;;;;;;;1.77;1.17;;;18.90;68.00;;;;;;5040488;28;20417;-74
2023/09/23 12:38:55;;;;;;;5.63;1.30;;;19.10;68.00;;;;;;5036084;28;20053;-74
2023/09/23 12:41:22;;;;;;;1.80;1.23;;;19.30;70.10;;;;;;5033861;28;20575;-74
2023/09/23 12:43:49;;;;;;;2.08;1.60;;;20.70;68.40;;;;;;5039640;28;20408;-74
2023/09/23 12:46:16;;;;;;;4.07;1.67;;;21.90;62.20;;;;;;5035068;28;20115;-74
2023/09/23 12:48:44;;;;;;;3.35;1.35;;;21.20;61.50;;;;;;5035831;28;20053;-74
2023/09/23 12:51:12;;;;;;;2.75;1.23;;;20.60;63.60;;;;;;5041545;28;20053;-74
2023/09/23 12:53:39;;;;;;;3.90;1.00;;;20.30;64.30;;;;;;5034710;28;20469;-74